sensor_id;sensor_type;location;lat;lon;timestamp;P1;durP1;ratioP1;P2;durP2;ratioP2
34353;SDS011;20618;0.000;0.000;2024-03-23T00:52:39;10.80;;;3.03;;
34353;SDS011;20618;0.000;0.000;2024-03-23T00:55:05;7.07;;;3.08;;
34353;SDS011;20618;0.000;0.000;2024-03-23T00:57:32;7.65;;;3.20;;
34353;SDS011;20618;0.000;0.000;2024-03-23T00:59:59;6.47;;;3.10;;
34353;SDS011;20618;0.000;0.000;2024-03-23T01:02:25;6.95;;;2.95;;
34353;SDS011;20618;0.000;0.000;2024-03-23T01:04:51;9.95;;;3.42;;
34353;SDS011;20618;0.000;0.000;2024-03-23T01:07:17;8.45;;;3.05;;
34353;SDS011;20618;0.000;0.000;2024-03-23T01:09:43;7.65;;;3.20;;
34353;SDS011;20618;0.000;0.000;2024-03-23T01:12:09;11.60;;;3.22;;
34353;SDS011;20618;0.000;0.000;2024-03-23T01:14:35;8.52;;;3.05;;
34353;SDS011;20618;0.000;0.000;2024-03-23T01:17:02;6.93;;;2.63;;
34353;SDS011;20618;0.000;0.000;2024-03-23T01:19:28;5.25;;;3.25;;
34353;SDS011;20618;0.000;0.000;2024-03-23T01:21:54;8.65;;;2.72;;
34353;SDS011;20618;0.000;0.000;2024-03-23T01:24:20;9.60;;;3.08;;
34353;SDS011;20618;0.000;0.000;2024-03-23T01:26:46;6.45;;;2.55;;
34353;SDS011;20618;0.000;0.000;2024-03-23T01:29:12;9.10;;;2.78;;
34353;SDS011;20618;0.000;0.000;2024-03-23T01:31:39;5.80;;;3.03;;
34353;SDS011;20618;0.000;0.000;2024-03-23T01:34:05;9.02;;;3.22;;
34353;SDS011;20618;0.000;0.000;2024-03-23T01:36:31;4.95;;;2.67;;
34353;SDS011;20618;0.000;0.000;2024-03-23T01:38:57;8.32;;;3.17;;
34353;SDS011;20618;0.000;0.000;2024-03-23T01:41:24;6.55;;;2.83;;
34353;SDS011;20618;0.000;0.000;2024-03-23T01:43:50;7.05;;;3.05;;
34353;SDS011;20618;0.000;0.000;2024-03-23T01:46:16;8.10;;;2.95;;
34353;SDS011;20618;0.000;0.000;2024-03-23T01:48:42;7.25;;;2.78;;
34353;SDS011;20618;0.000;0.000;2024-03-23T01:51:09;8.18;;;3.40;;
34353;SDS011;20618;0.000;0.000;2024-03-23T01:53:36;8.02;;;3.08;;
34353;SDS011;20618;0.000;0.000;2024-03-23T01:56:02;5.10;;;2.58;;
34353;SDS011;20618;0.000;0.000;2024-03-23T01:58:28;8.57;;;3.30;;
34353;SDS011;20618;0.000;0.000;2024-03-23T02:00:57;5.57;;;2.45;;
34353;SDS011;20618;0.000;0.000;2024-03-23T02:05:50;7.95;;;3.10;;
34353;SDS011;20618;0.000;0.000;2024-03-23T02:08:17;7.28;;;2.90;;
34353;SDS011;20618;0.000;0.000;2024-03-23T02:10:43;5.68;;;2.80;;
34353;SDS011;20618;0.000;0.000;2024-03-23T02:13:09;6.60;;;2.90;;
34353;SDS011;20618;0.000;0.000;2024-03-23T02:15:36;5.35;;;2.67;;
34353;SDS011;20618;0.000;0.000;2024-03-23T02:18:02;10.07;;;2.90;;
34353;SDS011;20618;0.000;0.000;2024-03-23T02:20:28;6.03;;;2.90;;
34353;SDS011;20618;0.000;0.000;2024-03-23T02:22:55;7.93;;;3.78;;
34353;SDS011;20618;0.000;0.000;2024-03-23T02:25:21;8.40;;;2.70;;
34353;SDS011;20618;0.000;0.000;2024-03-23T02:27:47;6.25;;;2.75;;
34353;SDS011;20618;0.000;0.000;2024-03-23T02:30:13;7.32;;;2.65;;
34353;SDS011;20618;0.000;0.000;2024-03-23T02:32:39;6.65;;;2.92;;
34353;SDS011;20618;0.000;0.000;2024-03-23T02:35:06;8.20;;;2.88;;
34353;SDS011;20618;0.000;0.000;2024-03-23T02:37:32;8.55;;;2.97;;
34353;SDS011;20618;0.000;0.000;2024-03-23T02:39:58;8.35;;;2.88;;
34353;SDS011;20618;0.000;0.000;2024-03-23T02:42:24;6.70;;;3.00;;
34353;SDS011;20618;0.000;0.000;2024-03-23T02:44:50;6.25;;;2.78;;
34353;SDS011;20618;0.000;0.000;2024-03-23T02:47:17;6.00;;;2.58;;
34353;SDS011;20618;0.000;0.000;2024-03-23T02:49:43;5.90;;;2.50;;
34353;SDS011;20618;0.000;0.000;2024-03-23T02:52:09;6.47;;;2.80;;
34353;SDS011;20618;0.000;0.000;2024-03-23T02:54:35;7.13;;;2.92;;
34353;SDS011;20618;0.000;0.000;2024-03-23T02:57:02;6.05;;;2.67;;
34353;SDS011;20618;0.000;0.000;2024-03-23T02:59:29;7.22;;;3.00;;
34353;SDS011;20618;0.000;0.000;2024-03-23T03:01:56;4.07;;;2.28;;
34353;SDS011;20618;0.000;0.000;2024-03-23T03:04:22;8.43;;;3.08;;
34353;SDS011;20618;0.000;0.000;2024-03-23T03:06:48;6.88;;;2.78;;
34353;SDS011;20618;0.000;0.000;2024-03-23T03:09:15;9.75;;;2.95;;
34353;SDS011;20618;0.000;0.000;2024-03-23T03:11:41;5.22;;;2.58;;
34353;SDS011;20618;0.000;0.000;2024-03-23T03:14:07;6.68;;;2.50;;
34353;SDS011;20618;0.000;0.000;2024-03-23T03:16:33;7.38;;;2.80;;
34353;SDS011;20618;0.000;0.000;2024-03-23T03:18:59;6.38;;;2.58;;
34353;SDS011;20618;0.000;0.000;2024-03-23T03:21:26;6.85;;;2.80;;
34353;SDS011;20618;0.000;0.000;2024-03-23T03:23:52;6.43;;;2.50;;
34353;SDS011;20618;0.000;0.000;2024-03-23T03:26:19;6.13;;;2.63;;
34353;SDS011;20618;0.000;0.000;2024-03-23T03:28:45;6.13;;;2.90;;
34353;SDS011;20618;0.000;0.000;2024-03-23T03:31:16;9.32;;;3.15;;
34353;SDS011;20618;0.000;0.000;2024-03-23T03:33:43;5.78;;;2.58;;
34353;SDS011;20618;0.000;0.000;2024-03-23T03:36:09;6.97;;;2.97;;
34353;SDS011;20618;0.000;0.000;2024-03-23T03:38:36;8.35;;;2.95;;
34353;SDS011;20618;0.000;0.000;2024-03-23T03:41:03;6.75;;;2.63;;
34353;SDS011;20618;0.000;0.000;2024-03-23T03:43:29;4.35;;;2.55;;
34353;SDS011;20618;0.000;0.000;2024-03-23T03:45:56;6.20;;;2.63;;
34353;SDS011;20618;0.000;0.000;2024-03-23T03:48:22;5.30;;;2.25;;
34353;SDS011;20618;0.000;0.000;2024-03-23T03:50:49;7.95;;;3.00;;
34353;SDS011;20618;0.000;0.000;2024-03-23T03:53:15;6.38;;;2.70;;
34353;SDS011;20618;0.000;0.000;2024-03-23T03:55:41;6.82;;;3.03;;
34353;SDS011;20618;0.000;0.000;2024-03-23T03:58:08;6.75;;;2.55;;
34353;SDS011;20618;0.000;0.000;2024-03-23T04:00:34;5.57;;;2.55;;
34353;SDS011;20618;0.000;0.000;2024-03-23T04:03:00;6.65;;;2.65;;
34353;SDS011;20618;0.000;0.000;2024-03-23T04:05:27;7.53;;;2.63;;
34353;SDS011;20618;0.000;0.000;2024-03-23T04:07:53;8.02;;;3.08;;
34353;SDS011;20618;0.000;0.000;2024-03-23T04:10:19;4.90;;;2.38;;
34353;SDS011;20618;0.000;0.000;2024-03-23T04:12:46;5.82;;;2.63;;
34353;SDS011;20618;0.000;0.000;2024-03-23T04:15:13;7.25;;;2.58;;
34353;SDS011;20618;0.000;0.000;2024-03-23T04:17:39;4.43;;;2.25;;
34353;SDS011;20618;0.000;0.000;2024-03-23T04:20:07;6.05;;;2.88;;
34353;SDS011;20618;0.000;0.000;2024-03-23T04:22:39;7.85;;;2.70;;
34353;SDS011;20618;0.000;0.000;2024-03-23T04:25:05;7.68;;;2.80;;
34353;SDS011;20618;0.000;0.000;2024-03-23T04:27:35;7.55;;;2.60;;
34353;SDS011;20618;0.000;0.000;2024-03-23T04:30:01;7.00;;;2.97;;
34353;SDS011;20618;0.000;0.000;2024-03-23T04:32:29;4.65;;;2.40;;
34353;SDS011;20618;0.000;0.000;2024-03-23T04:34:55;5.55;;;2.65;;
34353;SDS011;20618;0.000;0.000;2024-03-23T04:37:21;8.23;;;2.40;;
34353;SDS011;20618;0.000;0.000;2024-03-23T04:39:47;7.00;;;2.60;;
34353;SDS011;20618;0.000;0.000;2024-03-23T04:42:17;5.95;;;2.90;;
34353;SDS011;20618;0.000;0.000;2024-03-23T04:44:43;6.40;;;2.60;;
34353;SDS011;20618;0.000;0.000;2024-03-23T04:47:10;7.93;;;2.88;;
34353;SDS011;20618;0.000;0.000;2024-03-23T04:49:36;5.75;;;2.33;;
34353;SDS011;20618;0.000;0.000;2024-03-23T04:52:03;5.00;;;2.47;;
34353;SDS011;20618;0.000;0.000;2024-03-23T04:54:30;5.13;;;2.60;;
34353;SDS011;20618;0.000;0.000;2024-03-23T04:56:57;7.65;;;2.72;;
34353;SDS011;20618;0.000;0.000;2024-03-23T04:59:23;7.40;;;2.60;;
34353;SDS011;20618;0.000;0.000;2024-03-23T05:01:49;7.80;;;2.97;;
34353;SDS011;20618;0.000;0.000;2024-03-23T05:04:16;4.38;;;2.40;;
34353;SDS011;20618;0.000;0.000;2024-03-23T05:06:42;4.53;;;2.47;;
34353;SDS011;20618;0.000;0.000;2024-03-23T05:09:08;5.80;;;2.50;;
34353;SDS011;20618;0.000;0.000;2024-03-23T05:11:40;6.28;;;2.90;;
34353;SDS011;20618;0.000;0.000;2024-03-23T05:14:07;5.72;;;2.47;;
34353;SDS011;20618;0.000;0.000;2024-03-23T05:16:33;7.35;;;2.53;;
34353;SDS011;20618;0.000;0.000;2024-03-23T05:18:59;4.65;;;2.35;;
34353;SDS011;20618;0.000;0.000;2024-03-23T05:21:26;5.57;;;2.30;;
34353;SDS011;20618;0.000;0.000;2024-03-23T05:23:53;6.32;;;2.47;;
34353;SDS011;20618;0.000;0.000;2024-03-23T05:26:21;7.38;;;3.00;;
34353;SDS011;20618;0.000;0.000;2024-03-23T05:28:48;5.60;;;2.22;;
34353;SDS011;20618;0.000;0.000;2024-03-23T05:31:26;4.18;;;2.13;;
34353;SDS011;20618;0.000;0.000;2024-03-23T05:33:53;4.15;;;2.30;;
34353;SDS011;20618;0.000;0.000;2024-03-23T05:36:19;4.70;;;2.67;;
34353;SDS011;20618;0.000;0.000;2024-03-23T05:38:45;3.95;;;2.10;;
34353;SDS011;20618;0.000;0.000;2024-03-23T05:41:12;5.05;;;2.50;;
34353;SDS011;20618;0.000;0.000;2024-03-23T05:43:38;6.43;;;2.53;;
34353;SDS011;20618;0.000;0.000;2024-03-23T05:46:04;6.97;;;2.03;;
34353;SDS011;20618;0.000;0.000;2024-03-23T05:48:31;4.90;;;2.45;;
34353;SDS011;20618;0.000;0.000;2024-03-23T05:50:57;5.43;;;2.30;;
34353;SDS011;20618;0.000;0.000;2024-03-23T05:53:24;4.95;;;2.45;;
34353;SDS011;20618;0.000;0.000;2024-03-23T05:55:50;5.05;;;2.35;;
34353;SDS011;20618;0.000;0.000;2024-03-23T05:58:18;5.75;;;2.60;;
34353;SDS011;20618;0.000;0.000;2024-03-23T06:00:47;6.03;;;2.45;;
34353;SDS011;20618;0.000;0.000;2024-03-23T06:03:13;4.97;;;2.42;;
34353;SDS011;20618;0.000;0.000;2024-03-23T06:05:39;4.55;;;2.40;;
34353;SDS011;20618;0.000;0.000;2024-03-23T06:08:07;4.53;;;2.20;;
34353;SDS011;20618;0.000;0.000;2024-03-23T06:10:34;4.97;;;2.47;;
34353;SDS011;20618;0.000;0.000;2024-03-23T06:13:01;6.63;;;2.55;;
34353;SDS011;20618;0.000;0.000;2024-03-23T06:15:27;5.45;;;2.25;;
34353;SDS011;20618;0.000;0.000;2024-03-23T06:17:53;5.47;;;2.30;;
34353;SDS011;20618;0.000;0.000;2024-03-23T06:20:20;5.20;;;2.50;;
34353;SDS011;20618;0.000;0.000;2024-03-23T06:22:46;5.07;;;2.17;;
34353;SDS011;20618;0.000;0.000;2024-03-23T06:25:12;4.70;;;2.30;;
34353;SDS011;20618;0.000;0.000;2024-03-23T06:27:38;7.47;;;2.38;;
34353;SDS011;20618;0.000;0.000;2024-03-23T06:30:05;5.25;;;2.40;;
34353;SDS011;20618;0.000;0.000;2024-03-23T06:32:32;6.03;;;2.20;;
34353;SDS011;20618;0.000;0.000;2024-03-23T06:34:58;6.00;;;2.75;;
34353;SDS011;20618;0.000;0.000;2024-03-23T06:37:25;4.88;;;2.40;;
34353;SDS011;20618;0.000;0.000;2024-03-23T06:39:53;6.25;;;2.60;;
34353;SDS011;20618;0.000;0.000;2024-03-23T06:42:19;5.03;;;2.08;;
34353;SDS011;20618;0.000;0.000;2024-03-23T06:44:46;4.55;;;2.38;;
34353;SDS011;20618;0.000;0.000;2024-03-23T06:47:12;5.65;;;2.55;;
34353;SDS011;20618;0.000;0.000;2024-03-23T06:49:38;4.65;;;2.25;;
34353;SDS011;20618;0.000;0.000;2024-03-23T06:52:04;5.60;;;2.25;;
34353;SDS011;20618;0.000;0.000;2024-03-23T06:54:30;5.25;;;1.95;;
34353;SDS011;20618;0.000;0.000;2024-03-23T06:56:56;4.43;;;2.42;;
34353;SDS011;20618;0.000;0.000;2024-03-23T06:59:23;3.75;;;2.05;;
34353;SDS011;20618;0.000;0.000;2024-03-23T07:01:49;5.25;;;2.00;;
34353;SDS011;20618;0.000;0.000;2024-03-23T07:04:15;4.28;;;2.38;;
34353;SDS011;20618;0.000;0.000;2024-03-23T07:06:44;3.75;;;2.10;;
34353;SDS011;20618;0.000;0.000;2024-03-23T07:09:11;4.53;;;2.40;;
34353;SDS011;20618;0.000;0.000;2024-03-23T07:11:37;4.03;;;2.50;;
34353;SDS011;20618;0.000;0.000;2024-03-23T07:14:03;5.65;;;2.38;;
34353;SDS011;20618;0.000;0.000;2024-03-23T07:16:30;4.07;;;2.53;;
34353;SDS011;20618;0.000;0.000;2024-03-23T07:18:56;4.18;;;2.13;;
34353;SDS011;20618;0.000;0.000;2024-03-23T07:21:23;3.72;;;2.17;;
34353;SDS011;20618;0.000;0.000;2024-03-23T07:23:49;4.28;;;1.85;;
34353;SDS011;20618;0.000;0.000;2024-03-23T07:26:16;4.95;;;2.50;;
34353;SDS011;20618;0.000;0.000;2024-03-23T07:28:43;3.95;;;2.10;;
34353;SDS011;20618;0.000;0.000;2024-03-23T07:31:11;4.38;;;2.13;;
34353;SDS011;20618;0.000;0.000;2024-03-23T07:33:47;4.55;;;2.10;;
34353;SDS011;20618;0.000;0.000;2024-03-23T07:36:14;2.83;;;1.92;;
34353;SDS011;20618;0.000;0.000;2024-03-23T07:38:43;4.38;;;2.22;;
34353;SDS011;20618;0.000;0.000;2024-03-23T07:41:16;5.43;;;2.13;;
34353;SDS011;20618;0.000;0.000;2024-03-23T07:43:43;3.88;;;1.95;;
34353;SDS011;20618;0.000;0.000;2024-03-23T07:46:09;4.25;;;2.20;;
34353;SDS011;20618;0.000;0.000;2024-03-23T07:48:37;5.07;;;2.30;;
34353;SDS011;20618;0.000;0.000;2024-03-23T07:51:04;4.78;;;2.00;;
34353;SDS011;20618;0.000;0.000;2024-03-23T07:53:30;4.72;;;2.13;;
34353;SDS011;20618;0.000;0.000;2024-03-23T07:56:01;4.03;;;2.25;;
34353;SDS011;20618;0.000;0.000;2024-03-23T07:58:27;7.60;;;2.42;;
34353;SDS011;20618;0.000;0.000;2024-03-23T08:00:58;6.20;;;2.25;;
34353;SDS011;20618;0.000;0.000;2024-03-23T08:03:29;4.03;;;2.15;;
34353;SDS011;20618;0.000;0.000;2024-03-23T08:05:55;4.22;;;2.20;;
34353;SDS011;20618;0.000;0.000;2024-03-23T08:08:21;4.55;;;2.17;;
34353;SDS011;20618;0.000;0.000;2024-03-23T08:10:51;4.35;;;2.10;;
34353;SDS011;20618;0.000;0.000;2024-03-23T08:13:17;3.83;;;2.30;;
34353;SDS011;20618;0.000;0.000;2024-03-23T08:15:44;4.55;;;2.10;;
34353;SDS011;20618;0.000;0.000;2024-03-23T08:18:11;3.58;;;1.90;;
34353;SDS011;20618;0.000;0.000;2024-03-23T08:20:38;5.15;;;2.50;;
34353;SDS011;20618;0.000;0.000;2024-03-23T08:23:06;5.60;;;2.33;;
34353;SDS011;20618;0.000;0.000;2024-03-23T08:25:32;5.32;;;2.00;;
34353;SDS011;20618;0.000;0.000;2024-03-23T08:27:58;3.72;;;2.10;;
34353;SDS011;20618;0.000;0.000;2024-03-23T08:30:24;4.53;;;2.08;;
34353;SDS011;20618;0.000;0.000;2024-03-23T08:32:51;3.97;;;2.08;;
34353;SDS011;20618;0.000;0.000;2024-03-23T08:35:17;5.13;;;2.33;;
34353;SDS011;20618;0.000;0.000;2024-03-23T08:37:43;4.50;;;2.10;;
34353;SDS011;20618;0.000;0.000;2024-03-23T08:40:09;5.03;;;2.15;;
34353;SDS011;20618;0.000;0.000;2024-03-23T08:42:35;5.97;;;2.55;;
34353;SDS011;20618;0.000;0.000;2024-03-23T08:45:02;5.10;;;2.50;;
34353;SDS011;20618;0.000;0.000;2024-03-23T08:47:28;4.45;;;2.00;;
34353;SDS011;20618;0.000;0.000;2024-03-23T08:49:54;3.92;;;2.30;;
34353;SDS011;20618;0.000;0.000;2024-03-23T08:52:20;4.95;;;2.17;;
34353;SDS011;20618;0.000;0.000;2024-03-23T08:54:48;5.15;;;2.50;;
34353;SDS011;20618;0.000;0.000;2024-03-23T08:57:14;4.47;;;2.35;;
34353;SDS011;20618;0.000;0.000;2024-03-23T08:59:40;5.28;;;2.22;;
34353;SDS011;20618;0.000;0.000;2024-03-23T09:02:06;4.65;;;1.98;;
34353;SDS011;20618;0.000;0.000;2024-03-23T09:04:33;4.45;;;2.15;;
34353;SDS011;20618;0.000;0.000;2024-03-23T09:07:00;5.03;;;2.10;;
34353;SDS011;20618;0.000;0.000;2024-03-23T09:09:26;5.35;;;1.92;;
34353;SDS011;20618;0.000;0.000;2024-03-23T09:11:52;3.60;;;2.17;;
34353;SDS011;20618;0.000;0.000;2024-03-23T09:14:18;5.55;;;2.28;;
34353;SDS011;20618;0.000;0.000;2024-03-23T09:16:45;3.88;;;1.98;;
34353;SDS011;20618;0.000;0.000;2024-03-23T09:19:11;6.13;;;2.50;;
34353;SDS011;20618;0.000;0.000;2024-03-23T09:21:37;4.43;;;2.17;;
34353;SDS011;20618;0.000;0.000;2024-03-23T09:24:03;4.07;;;1.95;;
34353;SDS011;20618;0.000;0.000;2024-03-23T09:26:29;4.10;;;2.25;;
34353;SDS011;20618;0.000;0.000;2024-03-23T09:28:55;4.40;;;2.13;;
34353;SDS011;20618;0.000;0.000;2024-03-23T09:31:22;3.90;;;2.03;;
34353;SDS011;20618;0.000;0.000;2024-03-23T09:33:48;5.55;;;2.58;;
34353;SDS011;20618;0.000;0.000;2024-03-23T09:36:14;4.30;;;2.03;;
34353;SDS011;20618;0.000;0.000;2024-03-23T09:38:41;4.43;;;2.00;;
34353;SDS011;20618;0.000;0.000;2024-03-23T09:41:07;3.75;;;2.15;;
34353;SDS011;20618;0.000;0.000;2024-03-23T09:43:34;5.40;;;2.38;;
34353;SDS011;20618;0.000;0.000;2024-03-23T09:46:04;3.70;;;2.05;;
34353;SDS011;20618;0.000;0.000;2024-03-23T09:48:30;5.90;;;2.10;;
34353;SDS011;20618;0.000;0.000;2024-03-23T09:50:56;3.80;;;1.70;;
34353;SDS011;20618;0.000;0.000;2024-03-23T09:53:23;4.40;;;2.33;;
34353;SDS011;20618;0.000;0.000;2024-03-23T09:55:49;4.15;;;2.33;;
34353;SDS011;20618;0.000;0.000;2024-03-23T09:58:16;3.50;;;1.88;;
34353;SDS011;20618;0.000;0.000;2024-03-23T10:00:42;5.63;;;2.30;;
34353;SDS011;20618;0.000;0.000;2024-03-23T10:03:08;3.67;;;1.85;;
34353;SDS011;20618;0.000;0.000;2024-03-23T10:05:36;4.72;;;2.05;;
34353;SDS011;20618;0.000;0.000;2024-03-23T10:10:41;4.22;;;2.17;;
34353;SDS011;20618;0.000;0.000;2024-03-23T10:13:07;4.85;;;2.30;;
34353;SDS011;20618;0.000;0.000;2024-03-23T10:15:34;4.97;;;2.08;;
34353;SDS011;20618;0.000;0.000;2024-03-23T10:20:41;4.88;;;2.20;;
34353;SDS011;20618;0.000;0.000;2024-03-23T10:23:18;4.63;;;2.20;;
34353;SDS011;20618;0.000;0.000;2024-03-23T10:25:44;6.00;;;2.20;;
34353;SDS011;20618;0.000;0.000;2024-03-23T10:28:13;5.13;;;2.10;;
34353;SDS011;20618;0.000;0.000;2024-03-23T10:30:39;3.25;;;2.00;;
34353;SDS011;20618;0.000;0.000;2024-03-23T10:33:09;5.13;;;2.33;;
34353;SDS011;20618;0.000;0.000;2024-03-23T10:35:36;3.63;;;2.35;;
34353;SDS011;20618;0.000;0.000;2024-03-23T10:38:04;3.30;;;1.88;;
34353;SDS011;20618;0.000;0.000;2024-03-23T10:40:31;5.90;;;2.00;;
34353;SDS011;20618;0.000;0.000;2024-03-23T10:42:57;4.30;;;2.10;;
34353;SDS011;20618;0.000;0.000;2024-03-23T10:45:25;4.38;;;2.10;;
34353;SDS011;20618;0.000;0.000;2024-03-23T10:47:51;3.22;;;2.00;;
34353;SDS011;20618;0.000;0.000;2024-03-23T10:50:17;4.07;;;2.08;;
34353;SDS011;20618;0.000;0.000;2024-03-23T10:52:45;5.03;;;2.20;;
34353;SDS011;20618;0.000;0.000;2024-03-23T10:55:12;4.93;;;2.10;;
34353;SDS011;20618;0.000;0.000;2024-03-23T10:57:53;3.72;;;2.00;;
34353;SDS011;20618;0.000;0.000;2024-03-23T11:00:20;5.50;;;2.08;;
34353;SDS011;20618;0.000;0.000;2024-03-23T11:02:47;3.80;;;1.73;;
34353;SDS011;20618;0.000;0.000;2024-03-23T11:07:52;4.75;;;2.10;;
34353;SDS011;20618;0.000;0.000;2024-03-23T11:10:25;3.85;;;2.08;;
34353;SDS011;20618;0.000;0.000;2024-03-23T11:12:52;6.32;;;2.58;;
34353;SDS011;20618;0.000;0.000;2024-03-23T11:15:19;4.50;;;2.13;;
34353;SDS011;20618;0.000;0.000;2024-03-23T11:20:33;4.88;;;2.05;;
34353;SDS011;20618;0.000;0.000;2024-03-23T11:22:59;3.92;;;2.13;;
34353;SDS011;20618;0.000;0.000;2024-03-23T11:25:26;5.90;;;2.33;;
34353;SDS011;20618;0.000;0.000;2024-03-23T11:27:56;7.50;;;2.15;;
34353;SDS011;20618;0.000;0.000;2024-03-23T11:30:27;6.43;;;2.15;;
34353;SDS011;20618;0.000;0.000;2024-03-23T11:32:54;3.78;;;2.30;;
34353;SDS011;20618;0.000;0.000;2024-03-23T11:35:34;4.72;;;2.17;;
34353;SDS011;20618;0.000;0.000;2024-03-23T11:38:13;5.25;;;2.30;;
34353;SDS011;20618;0.000;0.000;2024-03-23T11:40:41;4.93;;;1.98;;
34353;SDS011;20618;0.000;0.000;2024-03-23T11:43:08;4.38;;;2.00;;
34353;SDS011;20618;0.000;0.000;2024-03-23T11:45:38;4.80;;;2.08;;
34353;SDS011;20618;0.000;0.000;2024-03-23T11:48:06;3.60;;;1.90;;
34353;SDS011;20618;0.000;0.000;2024-03-23T11:50:33;4.88;;;2.22;;
34353;SDS011;20618;0.000;0.000;2024-03-23T11:53:09;4.38;;;2.20;;
34353;SDS011;20618;0.000;0.000;2024-03-23T11:55:42;3.75;;;1.90;;
34353;SDS011;20618;0.000;0.000;2024-03-23T11:58:08;3.53;;;2.15;;
34353;SDS011;20618;0.000;0.000;2024-03-23T12:00:34;4.75;;;2.40;;
34353;SDS011;20618;0.000;0.000;2024-03-23T12:03:01;4.47;;;2.30;;
34353;SDS011;20618;0.000;0.000;2024-03-23T12:05:28;5.63;;;2.10;;
34353;SDS011;20618;0.000;0.000;2024-03-23T12:07:55;6.25;;;2.25;;
34353;SDS011;20618;0.000;0.000;2024-03-23T12:10:21;5.05;;;2.22;;
34353;SDS011;20618;0.000;0.000;2024-03-23T12:12:59;3.38;;;2.10;;
34353;SDS011;20618;0.000;0.000;2024-03-23T12:15:25;4.38;;;2.47;;
34353;SDS011;20618;0.000;0.000;2024-03-23T12:17:51;3.75;;;2.20;;
34353;SDS011;20618;0.000;0.000;2024-03-23T12:20:17;4.93;;;2.40;;
34353;SDS011;20618;0.000;0.000;2024-03-23T12:22:43;6.13;;;2.63;;
34353;SDS011;20618;0.000;0.000;2024-03-23T12:25:11;3.80;;;2.28;;
34353;SDS011;20618;0.000;0.000;2024-03-23T12:27:37;5.95;;;2.50;;
34353;SDS011;20618;0.000;0.000;2024-03-23T12:30:03;5.10;;;2.17;;
34353;SDS011;20618;0.000;0.000;2024-03-23T12:32:30;4.28;;;2.28;;
34353;SDS011;20618;0.000;0.000;2024-03-23T12:34:56;3.03;;;2.05;;
34353;SDS011;20618;0.000;0.000;2024-03-23T12:37:22;5.00;;;2.10;;
34353;SDS011;20618;0.000;0.000;2024-03-23T12:39:48;4.68;;;2.15;;
34353;SDS011;20618;0.000;0.000;2024-03-23T12:42:14;3.42;;;2.00;;
34353;SDS011;20618;0.000;0.000;2024-03-23T12:44:40;4.82;;;2.10;;
34353;SDS011;20618;0.000;0.000;2024-03-23T12:47:07;3.95;;;2.28;;
34353;SDS011;20618;0.000;0.000;2024-03-23T12:49:33;3.78;;;2.00;;
34353;SDS011;20618;0.000;0.000;2024-03-23T12:51:59;3.75;;;2.10;;
34353;SDS011;20618;0.000;0.000;2024-03-23T12:54:26;3.03;;;2.00;;
34353;SDS011;20618;0.000;0.000;2024-03-23T12:56:52;4.18;;;2.17;;
34353;SDS011;20618;0.000;0.000;2024-03-23T12:59:19;4.85;;;2.30;;
34353;SDS011;20618;0.000;0.000;2024-03-23T13:01:45;3.65;;;2.20;;
34353;SDS011;20618;0.000;0.000;2024-03-23T13:04:11;3.92;;;2.13;;
34353;SDS011;20618;0.000;0.000;2024-03-23T13:06:37;4.32;;;2.35;;
34353;SDS011;20618;0.000;0.000;2024-03-23T13:09:04;5.15;;;2.40;;
34353;SDS011;20618;0.000;0.000;2024-03-23T13:11:30;5.05;;;2.17;;
34353;SDS011;20618;0.000;0.000;2024-03-23T13:13:56;3.65;;;2.33;;
34353;SDS011;20618;0.000;0.000;2024-03-23T13:16:22;5.85;;;2.42;;
34353;SDS011;20618;0.000;0.000;2024-03-23T13:18:49;4.10;;;2.33;;
34353;SDS011;20618;0.000;0.000;2024-03-23T13:21:15;4.22;;;2.10;;
34353;SDS011;20618;0.000;0.000;2024-03-23T13:23:42;3.42;;;1.92;;
34353;SDS011;20618;0.000;0.000;2024-03-23T13:26:10;6.45;;;2.60;;
34353;SDS011;20618;0.000;0.000;2024-03-23T13:28:37;4.53;;;2.40;;
34353;SDS011;20618;0.000;0.000;2024-03-23T13:31:03;4.47;;;2.45;;
34353;SDS011;20618;0.000;0.000;2024-03-23T13:33:32;4.40;;;2.15;;
34353;SDS011;20618;0.000;0.000;2024-03-23T13:35:58;3.17;;;1.83;;
34353;SDS011;20618;0.000;0.000;2024-03-23T13:38:25;3.65;;;2.03;;
34353;SDS011;20618;0.000;0.000;2024-03-23T13:40:55;5.57;;;2.35;;
34353;SDS011;20618;0.000;0.000;2024-03-23T13:43:22;5.03;;;1.88;;
34353;SDS011;20618;0.000;0.000;2024-03-23T13:45:48;3.67;;;2.28;;
34353;SDS011;20618;0.000;0.000;2024-03-23T13:48:15;3.40;;;2.15;;
34353;SDS011;20618;0.000;0.000;2024-03-23T13:50:42;4.05;;;2.28;;
34353;SDS011;20618;0.000;0.000;2024-03-23T13:53:08;3.45;;;2.00;;
34353;SDS011;20618;0.000;0.000;2024-03-23T13:55:34;3.65;;;2.20;;
34353;SDS011;20618;0.000;0.000;2024-03-23T13:58:01;3.28;;;2.13;;
34353;SDS011;20618;0.000;0.000;2024-03-23T14:00:27;4.07;;;1.95;;
34353;SDS011;20618;0.000;0.000;2024-03-23T14:02:53;4.40;;;2.58;;
34353;SDS011;20618;0.000;0.000;2024-03-23T14:05:19;4.10;;;1.90;;
34353;SDS011;20618;0.000;0.000;2024-03-23T14:07:45;4.25;;;2.53;;
34353;SDS011;20618;0.000;0.000;2024-03-23T14:10:12;3.97;;;2.13;;
34353;SDS011;20618;0.000;0.000;2024-03-23T14:12:38;3.58;;;2.13;;
34353;SDS011;20618;0.000;0.000;2024-03-23T14:15:07;4.82;;;1.98;;
34353;SDS011;20618;0.000;0.000;2024-03-23T14:17:34;4.53;;;2.22;;
34353;SDS011;20618;0.000;0.000;2024-03-23T14:20:00;3.70;;;2.00;;
34353;SDS011;20618;0.000;0.000;2024-03-23T14:22:28;6.13;;;2.55;;
34353;SDS011;20618;0.000;0.000;2024-03-23T14:24:55;5.40;;;2.58;;
34353;SDS011;20618;0.000;0.000;2024-03-23T14:27:21;3.83;;;1.77;;
34353;SDS011;20618;0.000;0.000;2024-03-23T14:29:48;3.95;;;2.13;;
34353;SDS011;20618;0.000;0.000;2024-03-23T14:32:14;4.38;;;2.10;;
34353;SDS011;20618;0.000;0.000;2024-03-23T14:34:40;4.05;;;2.10;;
34353;SDS011;20618;0.000;0.000;2024-03-23T14:37:07;5.22;;;2.05;;
34353;SDS011;20618;0.000;0.000;2024-03-23T14:39:33;4.05;;;2.03;;
34353;SDS011;20618;0.000;0.000;2024-03-23T14:42:02;2.92;;;2.20;;
34353;SDS011;20618;0.000;0.000;2024-03-23T14:44:29;3.45;;;2.10;;
34353;SDS011;20618;0.000;0.000;2024-03-23T14:46:55;4.05;;;2.30;;
34353;SDS011;20618;0.000;0.000;2024-03-23T14:49:21;3.72;;;2.25;;
34353;SDS011;20618;0.000;0.000;2024-03-23T14:51:47;4.30;;;1.90;;
34353;SDS011;20618;0.000;0.000;2024-03-23T14:54:14;3.67;;;1.88;;
34353;SDS011;20618;0.000;0.000;2024-03-23T14:56:40;4.32;;;2.25;;
34353;SDS011;20618;0.000;0.000;2024-03-23T14:59:06;3.83;;;2.13;;
34353;SDS011;20618;0.000;0.000;2024-03-23T15:01:33;3.65;;;2.22;;
34353;SDS011;20618;0.000;0.000;2024-03-23T15:03:59;3.53;;;2.10;;
34353;SDS011;20618;0.000;0.000;2024-03-23T15:06:25;5.18;;;2.00;;
34353;SDS011;20618;0.000;0.000;2024-03-23T15:08:51;3.72;;;2.00;;
34353;SDS011;20618;0.000;0.000;2024-03-23T15:11:19;4.72;;;2.05;;
34353;SDS011;20618;0.000;0.000;2024-03-23T15:13:45;3.10;;;1.85;;
34353;SDS011;20618;0.000;0.000;2024-03-23T15:16:18;2.83;;;2.03;;
34353;SDS011;20618;0.000;0.000;2024-03-23T15:18:47;4.35;;;2.00;;
34353;SDS011;20618;0.000;0.000;2024-03-23T15:21:14;3.40;;;1.95;;
34353;SDS011;20618;0.000;0.000;2024-03-23T15:23:45;3.20;;;1.95;;
34353;SDS011;20618;0.000;0.000;2024-03-23T15:26:11;3.90;;;2.03;;
34353;SDS011;20618;0.000;0.000;2024-03-23T15:28:37;3.83;;;1.88;;
34353;SDS011;20618;0.000;0.000;2024-03-23T15:31:07;3.13;;;1.92;;
34353;SDS011;20618;0.000;0.000;2024-03-23T15:33:34;3.40;;;1.70;;
34353;SDS011;20618;0.000;0.000;2024-03-23T15:36:04;3.03;;;1.77;;
34353;SDS011;20618;0.000;0.000;2024-03-23T15:38:33;2.70;;;1.67;;
34353;SDS011;20618;0.000;0.000;2024-03-23T15:40:59;3.70;;;1.92;;
34353;SDS011;20618;0.000;0.000;2024-03-23T15:43:26;4.07;;;2.00;;
34353;SDS011;20618;0.000;0.000;2024-03-23T15:45:55;3.90;;;1.85;;
34353;SDS011;20618;0.000;0.000;2024-03-23T15:48:22;3.40;;;2.10;;
34353;SDS011;20618;0.000;0.000;2024-03-23T15:50:51;4.00;;;2.00;;
34353;SDS011;20618;0.000;0.000;2024-03-23T15:53:18;3.28;;;1.95;;
34353;SDS011;20618;0.000;0.000;2024-03-23T15:55:45;2.78;;;1.55;;
34353;SDS011;20618;0.000;0.000;2024-03-23T15:58:11;3.70;;;1.80;;
34353;SDS011;20618;0.000;0.000;2024-03-23T16:00:37;2.67;;;1.80;;
34353;SDS011;20618;0.000;0.000;2024-03-23T16:03:03;2.75;;;1.60;;